createdAt,value
2023-05-21T00:02:16.239Z,16.7
2023-05-21T00:14:57.439Z,16.7
2023-05-21T00:19:26.470Z,16.5
2023-05-21T00:24:00.907Z,16.3
2023-05-21T00:29:29.811Z,16.4
2023-05-21T00:36:44.868Z,16.2
2023-05-21T00:39:42.771Z,16
2023-05-21T00:45:22.688Z,16
2023-05-21T00:50:40.794Z,16
2023-05-21T00:55:24.180Z,16
2023-05-21T00:57:46.590Z,16
2023-05-21T01:00:43.638Z,16
2023-05-21T01:03:59.388Z,16
2023-05-21T01:06:53.474Z,15.9
2023-05-21T01:08:01.800Z,15.9
2023-05-21T01:09:12.130Z,15.9
2023-05-21T01:10:20.573Z,15.9
2023-05-21T01:14:07.866Z,15.9
2023-05-21T01:18:10.487Z,15.9
2023-05-21T01:34:22.712Z,15.9
2023-05-21T01:42:16.241Z,15.9
2023-05-21T01:43:41.980Z,15.8
2023-05-21T01:54:54.015Z,15.8
2023-05-21T02:18:58.644Z,15.7
2023-05-21T02:22:38.126Z,15.8
2023-05-21T02:28:10.860Z,15.8
2023-05-21T02:33:46.443Z,15.8
2023-05-21T02:34:54.295Z,15.9
2023-05-21T02:36:56.912Z,15.8
2023-05-21T02:45:45.985Z,15.7
2023-05-21T02:59:18.396Z,15.8
2023-05-21T03:02:25.917Z,15.8
2023-05-21T03:21:06.952Z,15.7
2023-05-21T03:24:04.844Z,15.8
2023-05-21T03:26:07.035Z,15.7
2023-05-21T03:27:39.516Z,15.8
2023-05-21T03:28:46.775Z,15.7
2023-05-21T04:05:07.975Z,15.9
2023-05-21T04:16:42.759Z,16.1
2023-05-21T04:21:15.606Z,16.1
2023-05-21T04:37:54.222Z,16.4
2023-05-21T05:19:11.885Z,17.2
2023-05-21T05:21:14.426Z,17.2
2023-05-21T05:26:43.821Z,17.4
2023-05-21T05:33:48.941Z,17.8
2023-05-21T05:42:23.483Z,17.7
2023-05-21T05:47:52.225Z,18.2
2023-05-21T05:58:36.134Z,18.3
2023-05-21T06:00:29.641Z,18.2
2023-05-21T06:01:42.171Z,18.2
2023-05-21T06:02:52.169Z,18.1
2023-05-21T06:04:29.562Z,18.3
2023-05-21T06:06:04.559Z,18.3
2023-05-21T06:09:12.349Z,18.5
2023-05-21T06:19:16.986Z,19.1
2023-05-21T06:20:45.225Z,19.5
2023-05-21T06:27:19.222Z,20
2023-05-21T06:28:29.016Z,20.1
2023-05-21T06:32:32.306Z,20.1
2023-05-21T06:33:58.020Z,20.2
2023-05-21T06:35:17.404Z,20.2
2023-05-21T06:37:49.039Z,20.1
2023-05-21T06:39:06.926Z,20.1
2023-05-21T06:40:19.763Z,20.2
2023-05-21T06:41:41.622Z,20.2
2023-05-21T06:42:48.648Z,20.5
2023-05-21T06:43:55.717Z,20.6
2023-05-21T06:45:27.622Z,20.7
2023-05-21T06:46:40.388Z,20.7
2023-05-21T06:47:48.318Z,20.7
2023-05-21T06:49:03.901Z,20.7
2023-05-21T06:50:11.134Z,20.7
2023-05-21T06:52:21.600Z,20.7
2023-05-21T06:53:26.628Z,20.7
2023-05-21T06:54:31.773Z,20.7
2023-05-21T06:55:46.903Z,20.7
2023-05-21T06:56:52.055Z,20.7
2023-05-21T06:57:57.528Z,20.7
2023-05-21T06:59:08.050Z,20.7
2023-05-21T07:00:18.241Z,20.7
2023-05-21T07:01:37.392Z,20.7
2023-05-21T07:02:50.180Z,20.7
2023-05-21T07:03:55.230Z,20.7
2023-05-21T07:05:07.016Z,20.7
2023-05-21T07:06:41.964Z,20.7
2023-05-21T07:07:54.401Z,20.7
2023-05-21T07:09:16.175Z,20.7
2023-05-21T07:11:24.176Z,20.7
2023-05-21T07:12:47.427Z,20.7
2023-05-21T07:14:18.487Z,20.7
2023-05-21T07:15:34.025Z,20.7
2023-05-21T07:17:04.389Z,20.7
2023-05-21T07:18:12.524Z,20.7
2023-05-21T07:19:20.005Z,20.7
2023-05-21T07:23:32.892Z,20.7
2023-05-21T07:25:15.322Z,20.7
2023-05-21T07:26:32.520Z,20.7
2023-05-21T07:28:16.899Z,20.7
2023-05-21T07:29:22.060Z,20.7
2023-05-21T07:31:25.760Z,20.7
2023-05-21T07:32:31.994Z,20.7
2023-05-21T07:33:41.993Z,20.7
2023-05-21T07:34:46.990Z,20.7
2023-05-21T07:36:05.200Z,20.7
2023-05-21T07:37:12.391Z,20.7
2023-05-21T07:38:40.221Z,20.7
2023-05-21T07:39:56.456Z,20.7
2023-05-21T07:41:16.509Z,20.7
2023-05-21T07:42:25.473Z,20.7
2023-05-21T07:43:30.611Z,20.7
2023-05-21T07:44:41.041Z,20.7
2023-05-21T07:45:46.125Z,20.7
2023-05-21T07:47:03.165Z,20.7
2023-05-21T07:48:08.324Z,20.7
2023-05-21T07:49:31.256Z,20.7
2023-05-21T07:51:03.480Z,20.7
2023-05-21T07:52:11.823Z,20.7
2023-05-21T07:53:16.786Z,20.7
2023-05-21T07:54:21.793Z,20.7
2023-05-21T07:55:38.044Z,20.7
2023-05-21T07:56:44.002Z,20.7
2023-05-21T07:57:53.969Z,20.7
2023-05-21T07:58:59.390Z,20.7
2023-05-21T08:00:04.421Z,20.7
2023-05-21T08:01:12.211Z,20.7
2023-05-21T08:02:20.193Z,20.7
2023-05-21T08:03:25.286Z,20.7
2023-05-21T08:04:33.590Z,20.7
2023-05-21T08:05:40.704Z,20.7
2023-05-21T08:06:50.695Z,20.7
2023-05-21T08:07:56.771Z,20.7
2023-05-21T08:09:01.800Z,20.7
2023-05-21T08:10:06.810Z,20.7
2023-05-21T08:11:12.233Z,20.7
2023-05-21T08:12:17.231Z,20.7
2023-05-21T08:13:25.225Z,20.7
2023-05-21T08:14:31.460Z,20.7
2023-05-21T08:15:36.686Z,20.7
2023-05-21T08:16:42.622Z,20.7
2023-05-21T08:17:47.757Z,20.7
2023-05-21T08:19:05.664Z,20.7
2023-05-21T08:20:10.847Z,20.7
2023-05-21T08:21:16.092Z,20.7
2023-05-21T08:22:26.106Z,20.7
2023-05-21T08:23:31.150Z,20.7
2023-05-21T08:24:36.296Z,20.7
2023-05-21T08:25:41.903Z,20.7
2023-05-21T08:26:47.863Z,20.7
2023-05-21T08:27:54.473Z,20.7
2023-05-21T08:28:59.991Z,20.7
2023-05-21T08:30:11.996Z,20.7
2023-05-21T08:31:17.506Z,22.4
2023-05-21T08:32:22.515Z,22.4
2023-05-21T08:33:30.323Z,22.4
2023-05-21T08:34:40.232Z,22.4
2023-05-21T08:35:45.258Z,22.4
2023-05-21T08:37:05.332Z,22.4
2023-05-21T08:38:11.332Z,22.4
2023-05-21T08:39:16.603Z,22.4
2023-05-21T08:40:21.662Z,22.4
2023-05-21T08:41:28.728Z,22.4
2023-05-21T08:42:37.235Z,22.4
2023-05-21T08:43:45.057Z,22.4
2023-05-21T08:44:55.076Z,22.4
2023-05-21T08:46:00.185Z,22.4
2023-05-21T08:47:06.653Z,22.4
2023-05-21T08:48:13.667Z,22.4
2023-05-21T08:49:20.657Z,22.4
2023-05-21T08:50:25.963Z,22.4
2023-05-21T08:51:31.524Z,22.4
2023-05-21T08:52:36.591Z,22.4
2023-05-21T08:53:42.834Z,22.4
2023-05-21T08:54:49.877Z,22.4
2023-05-21T08:55:54.808Z,22.4
2023-05-21T08:57:09.917Z,22.4
2023-05-21T08:58:15.325Z,24
2023-05-21T08:59:20.440Z,24
2023-05-21T09:00:28.687Z,24
2023-05-21T09:01:34.653Z,24
2023-05-21T09:02:39.630Z,24
2023-05-21T09:03:47.799Z,24
2023-05-21T09:04:54.913Z,24
2023-05-21T09:06:05.045Z,24
2023-05-21T09:07:18.291Z,24
2023-05-21T09:08:33.422Z,24
2023-05-21T09:09:41.345Z,24
2023-05-21T09:10:49.431Z,24
2023-05-21T09:11:54.614Z,24
2023-05-21T09:12:59.756Z,24
2023-05-21T09:14:04.708Z,24
2023-05-21T09:15:09.835Z,24
2023-05-21T09:17:08.767Z,24
2023-05-21T09:18:16.850Z,24
2023-05-21T09:20:19.070Z,24
2023-05-21T09:21:27.249Z,24
2023-05-21T09:24:21.134Z,24
2023-05-21T09:26:09.051Z,24
2023-05-21T09:28:02.066Z,24
2023-05-21T09:29:25.005Z,24
2023-05-21T09:30:31.902Z,24
2023-05-21T09:32:33.500Z,24
2023-05-21T09:34:24.395Z,24
2023-05-21T09:46:52.083Z,24
2023-05-21T09:48:41.058Z,24
2023-05-21T10:09:23.171Z,24
2023-05-21T10:31:12.418Z,24
2023-05-21T10:32:18.022Z,24
2023-05-21T10:33:23.271Z,24
2023-05-21T10:34:32.067Z,24
2023-05-21T10:35:40.010Z,24
2023-05-21T10:42:02.979Z,24
2023-05-21T10:47:54.515Z,24
2023-05-21T10:49:12.057Z,24
2023-05-21T10:50:19.860Z,24
2023-05-21T10:51:37.008Z,24
2023-05-21T10:57:25.471Z,24
2023-05-21T11:06:40.460Z,24
2023-05-21T11:08:39.783Z,24
2023-05-21T11:09:45.753Z,24
2023-05-21T11:14:41.175Z,24
2023-05-21T11:16:39.635Z,24
2023-05-21T11:21:42.492Z,24.6
2023-05-21T11:23:56.707Z,25.3
2023-05-21T11:29:00.564Z,25.8
2023-05-21T11:30:07.828Z,25.6
2023-05-21T11:35:43.616Z,25.4
2023-05-21T11:38:39.652Z,25.7
2023-05-21T11:39:46.912Z,25.7
2023-05-21T11:40:58.311Z,25.6
2023-05-21T11:42:31.691Z,25.5
2023-05-21T12:07:50.699Z,25.6
2023-05-21T12:10:42.422Z,26
2023-05-21T12:12:00.757Z,26.1
2023-05-21T12:13:18.827Z,25.9
2023-05-21T12:14:25.997Z,26
2023-05-21T12:16:24.989Z,26.1
2023-05-21T12:17:34.967Z,26
2023-05-21T12:19:38.163Z,25.8
2023-05-21T12:20:45.215Z,25.5
2023-05-21T12:21:53.356Z,25.5
2023-05-21T12:23:00.742Z,25.3
2023-05-21T12:24:07.363Z,25.4
2023-05-21T12:25:42.473Z,25.6
2023-05-21T12:26:50.458Z,25.6
2023-05-21T12:28:05.804Z,25.8
2023-05-21T12:29:14.277Z,25.8
2023-05-21T12:30:21.580Z,26
2023-05-21T12:31:29.586Z,26.2
2023-05-21T12:32:36.567Z,26.2
2023-05-21T12:33:43.618Z,26.3
2023-05-21T12:34:52.407Z,26.4
2023-05-21T12:36:02.478Z,26.3
2023-05-21T12:37:09.788Z,25.9
2023-05-21T12:38:26.176Z,25.8
2023-05-21T12:39:37.925Z,26
2023-05-21T12:40:50.052Z,26.2
2023-05-21T12:41:58.970Z,26.1
2023-05-21T12:43:13.739Z,26
2023-05-21T12:44:21.221Z,26
2023-05-21T12:45:28.282Z,26.1
2023-05-21T12:46:35.762Z,26.1
2023-05-21T12:47:42.670Z,25.8
2023-05-21T12:48:54.533Z,25.7
2023-05-21T12:50:04.729Z,25.6
2023-05-21T12:51:12.047Z,25.7
2023-05-21T12:52:23.789Z,25.9
2023-05-21T12:53:30.874Z,25.9
2023-05-21T12:54:40.584Z,26.1
2023-05-21T12:56:03.150Z,26.2
2023-05-21T12:57:19.419Z,26
2023-05-21T12:58:29.187Z,26.2
2023-05-21T12:59:36.314Z,26.2
2023-05-21T13:00:54.161Z,26.2
2023-05-21T13:02:01.075Z,26.1
2023-05-21T13:03:13.967Z,26
2023-05-21T13:04:22.790Z,26
2023-05-21T13:05:37.346Z,26.1
2023-05-21T13:06:47.324Z,26
2023-05-21T13:08:12.694Z,26
2023-05-21T13:09:25.761Z,26
2023-05-21T13:10:32.704Z,26.2
2023-05-21T13:11:50.365Z,26.1
2023-05-21T13:12:58.662Z,25.9
2023-05-21T13:14:16.406Z,25.8
2023-05-21T13:15:24.291Z,25.4
2023-05-21T13:16:31.150Z,25.4
2023-05-21T13:17:52.515Z,25.4
2023-05-21T13:18:59.222Z,25.3
2023-05-21T13:20:15.881Z,25.3
2023-05-21T13:21:28.845Z,25.2
2023-05-21T13:22:53.015Z,25.2
2023-05-21T13:24:10.134Z,25.2
2023-05-21T13:26:20.297Z,25.2
2023-05-21T13:27:29.215Z,25.1
2023-05-21T13:28:47.902Z,25.1
2023-05-21T13:30:00.624Z,25.1
2023-05-21T13:31:17.507Z,25.1
2023-05-21T13:32:29.402Z,25.2
2023-05-21T13:33:42.161Z,25.2
2023-05-21T13:35:04.577Z,25.2
2023-05-21T13:36:13.011Z,25.2
2023-05-21T13:37:19.962Z,25.3
2023-05-21T13:38:30.290Z,25.2
2023-05-21T13:39:37.254Z,25.2
2023-05-21T13:40:46.293Z,25.2
2023-05-21T13:41:56.613Z,25.3
2023-05-21T13:43:04.639Z,25.5
2023-05-21T13:44:11.563Z,25.6
2023-05-21T13:45:18.914Z,25.4
2023-05-21T13:46:40.150Z,25.4
2023-05-21T13:47:47.293Z,25.5
2023-05-21T13:49:09.691Z,25.6
2023-05-21T13:50:28.272Z,25.6
2023-05-21T13:51:58.592Z,25.6
2023-05-21T13:53:05.518Z,25.9
2023-05-21T13:54:12.503Z,25.9
2023-05-21T13:55:19.364Z,25.9
2023-05-21T13:56:26.258Z,25.9
2023-05-21T13:57:35.309Z,25.9
2023-05-21T13:58:42.222Z,25.9
2023-05-21T13:59:51.180Z,25.7
2023-05-21T14:01:02.944Z,25.7
2023-05-21T14:02:09.814Z,26
2023-05-21T14:03:17.760Z,26.1
2023-05-21T14:04:24.614Z,26
2023-05-21T14:05:31.493Z,25.7
2023-05-21T14:06:43.295Z,25.7
2023-05-21T14:07:50.305Z,25.7
2023-05-21T14:08:59.239Z,25.5
2023-05-21T14:10:23.575Z,25.6
2023-05-21T14:11:42.170Z,25.6
2023-05-21T14:12:52.645Z,25.9
2023-05-21T14:14:38.288Z,25.9
2023-05-21T14:15:49.957Z,25.9
2023-05-21T14:17:01.703Z,26
2023-05-21T14:18:08.773Z,26.3
2023-05-21T14:19:20.550Z,26.3
2023-05-21T14:20:27.310Z,26.2
2023-05-21T14:21:35.289Z,26
2023-05-21T14:22:57.827Z,26.1
2023-05-21T14:24:11.589Z,26.1
2023-05-21T14:25:18.568Z,26.1
2023-05-21T14:26:57.569Z,26.1
2023-05-21T14:28:04.534Z,26.1
2023-05-21T14:29:17.204Z,26.1
2023-05-21T14:30:43.497Z,26.1
2023-05-21T14:31:52.520Z,26.2
2023-05-21T14:33:01.247Z,26.3
2023-05-21T14:34:46.911Z,26.3
2023-05-21T14:35:53.892Z,26
2023-05-21T14:37:34.718Z,26
2023-05-21T14:38:54.347Z,26
2023-05-21T14:40:01.971Z,26
2023-05-21T14:41:38.418Z,26
2023-05-21T14:43:14.457Z,26
2023-05-21T14:44:33.972Z,25.9
2023-05-21T14:45:41.714Z,25.9
2023-05-21T14:46:48.475Z,25.9
2023-05-21T14:48:11.005Z,25.9
2023-05-21T14:49:17.858Z,26
2023-05-21T14:50:24.661Z,26.1
2023-05-21T14:51:55.081Z,26.1
2023-05-21T14:53:02.292Z,26.1
2023-05-21T16:30:21.508Z,24.5
2023-05-21T16:46:23.156Z,24.3
2023-05-21T16:47:37.462Z,24.2
2023-05-21T16:49:25.961Z,24.2
2023-05-21T16:50:33.514Z,24
2023-05-21T16:51:40.553Z,24
2023-05-21T16:52:48.432Z,24
2023-05-21T16:53:57.706Z,24
2023-05-21T16:55:08.263Z,23.8
2023-05-21T16:56:15.449Z,23.8
2023-05-21T16:57:29.835Z,23.9
2023-05-21T16:59:00.401Z,23.8
2023-05-21T17:00:07.313Z,23.8
2023-05-21T17:01:41.690Z,23.9
2023-05-21T17:03:02.332Z,23.8
2023-05-21T17:04:59.199Z,23.7
2023-05-21T17:06:35.569Z,23.6
2023-05-21T17:09:09.262Z,23.6
2023-05-21T17:10:16.332Z,23.7
2023-05-21T17:11:23.354Z,23.7
2023-05-21T17:12:32.320Z,23.7
2023-05-21T17:14:11.938Z,23.7
2023-05-21T17:15:17.757Z,23.7
2023-05-21T17:16:25.003Z,23.7
2023-05-21T17:17:52.237Z,23.7
2023-05-21T17:19:39.660Z,23.6
2023-05-21T17:21:23.573Z,23.5
2023-05-21T17:22:39.263Z,23.5
2023-05-21T17:23:46.977Z,23.4
2023-05-21T17:27:11.386Z,23.5
2023-05-21T17:28:33.424Z,23.5
2023-05-21T17:33:09.461Z,23.4
2023-05-21T17:34:16.462Z,23.2
2023-05-21T17:36:08.082Z,23.2
2023-05-21T17:37:38.303Z,23.1
2023-05-21T17:38:56.419Z,23.1
2023-05-21T17:40:04.539Z,23.1
2023-05-21T17:41:15.056Z,23.1
2023-05-21T17:42:24.678Z,23.1
2023-05-21T17:43:37.928Z,23.1
2023-05-21T17:45:26.021Z,23
2023-05-21T17:46:36.645Z,23
2023-05-21T17:47:57.973Z,22.9
2023-05-21T17:49:29.338Z,22.9
2023-05-21T17:50:37.041Z,22.8
2023-05-21T17:51:53.248Z,22.8
2023-05-21T17:53:10.083Z,22.8
2023-05-21T17:54:17.138Z,22.6
2023-05-21T17:55:24.297Z,22.6
2023-05-21T17:57:02.167Z,22.6
2023-05-21T17:59:05.902Z,22.5
2023-05-21T18:00:12.958Z,22.3
2023-05-21T18:01:27.000Z,22.3
2023-05-21T18:03:42.120Z,22.3
2023-05-21T18:04:52.499Z,22.4
2023-05-21T18:06:17.084Z,22.3
2023-05-21T18:07:32.195Z,22.3
2023-05-21T18:09:08.299Z,22.3
2023-05-21T18:10:28.876Z,22.2
2023-05-21T18:11:39.488Z,22.2
2023-05-21T18:12:56.182Z,22.2
2023-05-21T18:14:14.543Z,22.2
2023-05-21T18:18:12.658Z,22.2
2023-05-21T18:19:19.594Z,22.2
2023-05-21T18:20:26.667Z,22.2
2023-05-21T18:24:24.740Z,22
2023-05-21T18:25:37.386Z,21.9
2023-05-21T18:26:45.324Z,21.8
2023-05-21T18:27:52.320Z,21.8
2023-05-21T18:29:01.987Z,21.8
2023-05-21T18:30:10.145Z,21.7
2023-05-21T18:31:22.092Z,21.7
2023-05-21T18:33:48.347Z,21.5
2023-05-21T18:34:55.324Z,21.5
2023-05-21T18:38:43.172Z,21.5
2023-05-21T18:39:50.977Z,21.3
2023-05-21T18:41:05.780Z,21.3
2023-05-21T18:43:07.099Z,21.3
2023-05-21T18:44:28.781Z,21.2
2023-05-21T18:51:57.298Z,20.8
2023-05-21T18:56:32.838Z,20.5
2023-05-21T19:15:13.665Z,20
2023-05-21T19:17:43.178Z,19.9
2023-05-21T19:27:09.919Z,19.8
2023-05-21T19:28:16.980Z,19.7
2023-05-21T19:29:24.666Z,19.8
2023-05-21T19:34:56.163Z,19.7
2023-05-21T19:36:15.689Z,19.7
2023-05-21T19:37:51.760Z,19.7
2023-05-21T19:43:14.289Z,19.6
2023-05-21T19:54:57.241Z,19.4
2023-05-21T19:58:01.320Z,19.3
2023-05-21T20:00:43.512Z,19.2
2023-05-21T20:02:00.057Z,19.1
2023-05-21T20:11:16.501Z,19
2023-05-21T20:12:28.343Z,19
2023-05-21T20:13:38.127Z,18.9
2023-05-21T20:14:45.135Z,18.9
2023-05-21T20:15:52.758Z,18.9
2023-05-21T20:17:02.987Z,19
2023-05-21T20:18:10.336Z,18.9
2023-05-21T20:19:48.543Z,18.9
2023-05-21T20:22:17.313Z,18.9
2023-05-21T20:23:27.443Z,18.8
2023-05-21T20:25:18.160Z,18.8
2023-05-21T20:26:26.045Z,18.8
2023-05-21T20:27:32.983Z,18.7
2023-05-21T20:28:48.685Z,18.7
2023-05-21T20:29:55.677Z,18.7
2023-05-21T20:31:02.832Z,18.7
2023-05-21T20:32:12.211Z,18.7
2023-05-21T20:33:19.394Z,18.7
2023-05-21T20:34:26.729Z,18.6
2023-05-21T20:35:35.749Z,18.5
2023-05-21T20:36:43.539Z,18.5
2023-05-21T20:37:51.419Z,18.5
2023-05-21T20:39:09.739Z,18.5
2023-05-21T20:40:19.457Z,18.5
2023-05-21T20:41:32.937Z,18.5
2023-05-21T20:43:11.499Z,18.5
2023-05-21T20:44:21.939Z,18.4
2023-05-21T20:46:04.144Z,18.5
2023-05-21T20:47:11.135Z,18.4
2023-05-21T20:48:28.792Z,18.3
2023-05-21T20:49:38.970Z,18.3
2023-05-21T20:50:46.296Z,18.3
2023-05-21T20:52:10.740Z,18.3
2023-05-21T20:54:31.744Z,18.1
2023-05-21T20:56:33.956Z,18.1
2023-05-21T20:57:32.680Z,18.1
2023-05-21T20:58:51.215Z,18
2023-05-21T21:00:27.939Z,18.1
2023-05-21T21:01:39.948Z,18.1
2023-05-21T21:03:03.427Z,18.1
2023-05-21T21:04:17.138Z,18.1
2023-05-21T21:05:24.083Z,18.1
2023-05-21T21:06:30.982Z,18.1
2023-05-21T21:08:00.354Z,18.1
2023-05-21T21:09:11.151Z,18.1
2023-05-21T21:10:18.222Z,18.1
2023-05-21T21:11:28.136Z,18.1
2023-05-21T21:12:40.906Z,18.1
2023-05-21T21:13:48.038Z,18
2023-05-21T21:15:02.878Z,18
2023-05-21T21:16:27.873Z,18
2023-05-21T21:17:37.938Z,18
2023-05-21T21:18:45.231Z,18
2023-05-21T21:19:54.047Z,18
2023-05-21T21:21:04.489Z,18
2023-05-21T21:22:17.101Z,18
2023-05-21T21:23:30.145Z,18
2023-05-21T21:24:57.433Z,17.9
2023-05-21T21:26:08.652Z,17.9
2023-05-21T21:27:15.632Z,17.9
2023-05-21T21:28:28.814Z,17.8
2023-05-21T21:29:37.963Z,17.8
2023-05-21T21:30:55.242Z,17.8
2023-05-21T21:32:02.243Z,17.7
2023-05-21T21:33:15.720Z,17.7
2023-05-21T21:34:30.800Z,17.7
2023-05-21T21:35:41.875Z,17.7
2023-05-21T21:36:52.366Z,17.7
2023-05-21T21:38:10.526Z,17.7
2023-05-21T21:39:22.128Z,17.6
2023-05-21T21:40:29.468Z,17.6
2023-05-21T21:41:48.628Z,17.6
2023-05-21T21:42:55.555Z,17.5
2023-05-21T21:44:06.494Z,17.5
2023-05-21T21:45:18.397Z,17.6
2023-05-21T21:46:34.557Z,17.5
2023-05-21T21:47:47.418Z,17.3
2023-05-21T21:48:57.471Z,17.3
2023-05-21T21:50:18.186Z,17.3
2023-05-21T21:51:33.723Z,17.3
2023-05-21T21:52:43.767Z,17.3
2023-05-21T21:54:17.096Z,17.3
2023-05-21T21:55:39.547Z,17.3
2023-05-21T21:56:50.261Z,17.3
2023-05-21T21:58:00.524Z,17.3
2023-05-21T21:59:29.162Z,17.3
2023-05-21T22:00:41.946Z,17.3
2023-05-21T22:01:51.237Z,17.2
2023-05-21T22:03:01.009Z,17.2
2023-05-21T22:04:12.051Z,17.2
2023-05-21T22:05:31.478Z,17.2
2023-05-21T22:06:43.274Z,17.2
2023-05-21T22:07:53.280Z,17.2
2023-05-21T22:09:01.577Z,17.2
2023-05-21T22:10:11.277Z,17.2
2023-05-21T22:11:18.170Z,17.3
2023-05-21T22:12:28.521Z,17.1
2023-05-21T22:13:42.496Z,17.1
2023-05-21T22:15:04.993Z,17.1
2023-05-21T22:16:16.228Z,17.1
2023-05-21T22:17:26.716Z,17
2023-05-21T22:18:40.882Z,17
2023-05-21T22:19:50.302Z,17
2023-05-21T22:20:59.893Z,17
2023-05-21T22:22:10.566Z,17.1
2023-05-21T22:23:17.866Z,17.1
2023-05-21T22:24:32.329Z,17.1
2023-05-21T22:25:44.051Z,17.1
2023-05-21T22:26:54.485Z,17.1
2023-05-21T22:28:01.507Z,17
2023-05-21T22:29:08.771Z,17
2023-05-21T22:30:18.673Z,17
2023-05-21T22:31:28.956Z,17
2023-05-21T22:32:40.345Z,16.9
2023-05-21T22:33:48.383Z,16.9
2023-05-21T22:34:58.399Z,16.9
2023-05-21T22:36:05.649Z,17
2023-05-21T22:37:19.608Z,16.9
2023-05-21T22:38:28.534Z,16.9
2023-05-21T22:39:37.260Z,16.9
2023-05-21T22:40:44.325Z,16.9
2023-05-21T22:41:54.781Z,16.9
2023-05-21T22:43:01.766Z,16.9
2023-05-21T22:44:08.627Z,16.9
2023-05-21T22:45:18.917Z,16.9
2023-05-21T22:46:26.520Z,16.9
2023-05-21T22:47:35.730Z,16.9
2023-05-21T22:48:46.252Z,16.9
2023-05-21T22:50:03.265Z,16.9
2023-05-21T22:51:10.339Z,16.9
2023-05-21T22:52:17.290Z,16.8
2023-05-21T22:53:35.135Z,16.8
2023-05-21T22:54:45.874Z,16.8
2023-05-21T22:55:52.831Z,16.8
2023-05-21T22:57:00.291Z,16.7
2023-05-21T22:58:08.317Z,16.7
2023-05-21T22:59:15.283Z,16.6
2023-05-21T23:00:22.296Z,16.6
2023-05-21T23:02:38.526Z,16.6
2023-05-21T23:03:57.192Z,16.6
2023-05-21T23:05:04.873Z,16.5
2023-05-21T23:06:11.995Z,16.5
2023-05-21T23:07:19.437Z,16.5
2023-05-21T23:08:26.692Z,16.4
2023-05-21T23:09:33.638Z,16.5
2023-05-21T23:10:47.607Z,16.5
2023-05-21T23:11:56.931Z,16.5
2023-05-21T23:13:21.261Z,16.4
2023-05-21T23:14:28.785Z,16.4
2023-05-21T23:15:37.847Z,16.3
2023-05-21T23:16:44.914Z,16.3
2023-05-21T23:17:51.846Z,16.3
2023-05-21T23:18:59.403Z,16.3
2023-05-21T23:20:11.109Z,16.3
2023-05-21T23:21:18.786Z,16.3
2023-05-21T23:22:26.942Z,16.3
2023-05-21T23:23:36.625Z,16.3
2023-05-21T23:24:43.602Z,16.3
2023-05-21T23:25:51.542Z,16.3
2023-05-21T23:27:02.308Z,16.3
2023-05-21T23:28:09.284Z,16.2
2023-05-21T23:29:17.167Z,16.2
2023-05-21T23:30:32.447Z,16.2
2023-05-21T23:31:42.200Z,16.2
2023-05-21T23:32:49.296Z,16.2
2023-05-21T23:34:00.803Z,16.2
2023-05-21T23:35:08.200Z,16.2
2023-05-21T23:36:15.959Z,16.1
2023-05-21T23:37:22.994Z,16.1
2023-05-21T23:38:35.106Z,16.2
2023-05-21T23:39:42.271Z,16.1
2023-05-21T23:40:55.894Z,16.1
2023-05-21T23:42:05.739Z,16
2023-05-21T23:43:12.731Z,16
2023-05-21T23:44:20.662Z,16
2023-05-21T23:45:31.011Z,16
2023-05-21T23:46:38.173Z,16
2023-05-21T23:47:47.797Z,16
2023-05-21T23:48:55.056Z,16
2023-05-21T23:49:59.867Z,16
2023-05-21T23:51:10.076Z,15.9
2023-05-21T23:52:17.754Z,16
2023-05-21T23:53:25.281Z,15.9
2023-05-21T23:54:32.324Z,16
2023-05-21T23:55:39.299Z,16
2023-05-21T23:56:49.111Z,16
2023-05-21T23:57:56.018Z,15.9
2023-05-21T23:59:03.487Z,16
